Terminal Aerodrome Forecast
Issued by NWS Wichita, KS

Home | Current Version | Previous Version | Text Only | Print | Product List | Glossary Off
Versions: 1 2 3 4 5 6 7 8 9 10 11 12

488
FTUS43 KICT 051737
TAFICT
TAF
KICT 051737Z 0518/0618 VRB04KT P6SM SCT080 BKN120
     FM060100 28007KT P6SM SCT070 BKN120
     FM060800 32007KT P6SM SCT100=

USA.gov is the U.S. government's official web portal to all federal, state and local government web resources and services.